Christine, North Dakota
Current Conditions -  °F | °C
As of 3:11 PM on Sunday 23 Nov 2014 (Local Time) from KJKJ Reporting Station
Overcast Overcast  
Wind Chill: 27°   Ceiling: 3200
Heat Index: 36°   Visibility: 10mi
Dew Point: 25°   Wind: 14mph
Humidity: 65%   Direction: 290°WNW
Pressure: 29.46"   Gusts: 21mph
Location:  46.57°N, 96.8°W
Report Text: KJKJ 232111Z AUTO 29012G18KT 10SM OVC032 02/M04 A2946 RMK AO2
Loading
Personal Weather Stations






























Interactive Weather Map New forecast layout! Learn more

10-Day Weather Forecast

Advertisements
Track Severe Weather on mobile